Time;durP1;ratioP1;P1;durP2;ratioP2;P2;SDS_P1;SDS_P2;PMS_P1;PMS_P2;Temp;Humidity;BMP_temperature;BMP_pressure;BME280_temperature;BME280_humidity;BME280_pressure;Samples;Min_cycle;Max_cycle;Signal;HPM_P1;HPM_P2
2021/12/01 00:00:49;;;;;;;14.70;8.40;;;;;;;1.43;60.38;99317.65;117323;1186;23903;-68
2021/12/01 00:03:17;;;;;;;14.10;8.50;;;;;;;1.36;60.48;99321.21;117470;1185;21841;-59
2021/12/01 00:05:47;;;;;;;15.20;8.20;;;;;;;1.29;60.33;99321.52;117349;1185;21860;-68
2021/12/01 00:08:16;;;;;;;14.70;7.60;;;;;;;1.24;60.31;99324.58;117347;1185;22941;-49
2021/12/01 00:10:44;;;;;;;13.40;8.20;;;;;;;1.20;60.33;99331.81;117400;1181;23454;-49
2021/12/01 00:13:17;;;;;;;14.70;8.70;;;;;;;1.19;60.35;99343.72;117403;1185;23509;-49
2021/12/01 00:16:01;;;;;;;17.20;9.30;;;;;;;1.28;60.03;99342.06;117334;1184;21960;-49
2021/12/01 00:18:30;;;;;;;12.50;7.20;;;;;;;1.13;60.43;99343.14;117382;1185;23458;-68
2021/12/01 00:20:58;;;;;;;16.70;10.00;;;;;;;1.23;60.36;99334.06;117477;1184;21841;-68
2021/12/01 00:23:27;;;;;;;18.70;11.50;;;;;;;2.28;58.60;99326.98;117404;1185;22026;-68
2021/12/01 00:25:55;;;;;;;18.00;10.80;;;;;;;2.57;57.94;99325.35;117351;1176;21836;-48
2021/12/01 00:28:24;;;;;;;23.10;15.70;;;;;;;1.98;58.84;99325.24;117327;1185;24164;-49
2021/12/01 00:30:52;;;;;;;41.00;27.90;;;;;;;1.86;59.58;99323.10;117284;1180;23448;-48
2021/12/01 00:33:23;;;;;;;27.20;18.60;;;;;;;2.69;58.10;99322.10;117383;1185;21904;-49
2021/12/01 00:35:53;;;;;;;21.00;14.40;;;;;;;2.78;57.91;99322.14;117308;1185;22645;-49
2021/12/01 00:38:22;;;;;;;22.30;15.70;;;;;;;2.94;57.61;99319.39;117365;1186;21956;-49
2021/12/01 00:40:50;;;;;;;18.30;12.40;;;;;;;3.04;57.50;99320.97;117180;1185;23195;-68
2021/12/01 00:43:23;;;;;;;18.00;11.30;;;;;;;3.10;57.35;99315.26;117421;1185;24152;-49
2021/12/01 00:45:56;;;;;;;17.50;11.30;;;;;;;3.00;57.57;99311.44;117393;1184;22654;-49
2021/12/01 00:48:25;;;;;;;16.90;11.50;;;;;;;2.84;57.78;99304.13;117366;1185;23458;-49
2021/12/01 00:50:54;;;;;;;27.60;14.60;;;;;;;2.95;57.51;99296.86;117391;1176;22921;-51
2021/12/01 00:53:22;;;;;;;26.00;15.60;;;;;;;2.96;57.34;99293.05;117305;1182;24289;-68
2021/12/01 00:55:51;;;;;;;22.20;12.50;;;;;;;2.96;57.33;99287.51;117258;1185;22922;-68
2021/12/01 00:58:19;;;;;;;18.20;11.30;;;;;;;3.00;57.42;99284.39;117315;1182;21857;-68
2021/12/01 01:00:51;;;;;;;17.70;11.00;;;;;;;3.06;57.27;99275.04;117460;1182;23472;-49
2021/12/01 01:03:19;;;;;;;16.90;10.90;;;;;;;3.07;57.24;99272.62;117284;1185;21851;-49
2021/12/01 01:05:49;;;;;;;20.10;11.60;;;;;;;3.07;57.25;99268.28;117334;1185;21880;-58
2021/12/01 01:08:18;;;;;;;17.30;10.80;;;;;;;3.05;57.23;99266.71;117121;1182;21861;-49
2021/12/01 01:10:58;;;;;;;16.60;10.60;;;;;;;3.04;57.04;99262.90;117328;1179;22942;-68
2021/12/01 01:16:25;;;;;;;18.50;11.80;;;;;;;3.01;57.16;99256.14;117276;1185;21841;-68
2021/12/01 01:19:02;;;;;;;22.70;14.00;;;;;;;2.98;57.15;99254.76;117330;1186;23557;-68
2021/12/01 01:21:37;;;;;;;20.90;12.60;;;;;;;2.96;57.00;99251.63;117077;1188;24173;-49
2021/12/01 01:24:05;;;;;;;19.40;11.80;;;;;;;2.96;57.01;99255.44;117307;1182;21990;-68
2021/12/01 01:26:35;;;;;;;20.60;12.80;;;;;;;2.63;57.48;99255.73;117371;1185;21888;-68
2021/12/01 01:29:04;;;;;;;18.90;11.40;;;;;;;1.74;59.18;99248.34;117323;1182;21954;-49
2021/12/01 01:31:32;;;;;;;16.70;10.70;;;;;;;1.53;59.80;99243.55;117305;1185;24143;-49
2021/12/01 01:34:01;;;;;;;18.30;11.50;;;;;;;1.56;59.69;99239.77;117379;1185;21867;-49
2021/12/01 01:36:29;;;;;;;20.40;11.50;;;;;;;1.37;59.85;99237.40;117302;1185;23518;-49
2021/12/01 01:38:58;;;;;;;20.40;12.60;;;;;;;1.78;59.26;99237.08;117264;1185;22928;-49
2021/12/01 01:41:26;;;;;;;17.00;10.70;;;;;;;2.36;57.86;99232.84;117307;1185;23468;-49
2021/12/01 01:43:54;;;;;;;16.20;10.50;;;;;;;2.51;57.69;99229.40;117249;1183;21856;-68
2021/12/01 01:46:23;;;;;;;17.00;10.10;;;;;;;2.56;57.56;99226.81;117347;1184;21893;-68
2021/12/01 01:48:55;;;;;;;18.00;11.90;;;;;;;2.58;57.55;99225.27;117285;1180;23584;-68
2021/12/01 01:51:25;;;;;;;21.20;12.80;;;;;;;2.59;57.44;99222.33;117271;1182;22491;-68
2021/12/01 01:53:54;;;;;;;15.90;10.80;;;;;;;2.60;57.35;99220.25;117292;1185;22868;-68
2021/12/01 01:56:23;;;;;;;14.00;9.20;;;;;;;2.59;57.33;99225.44;117358;1184;21900;-68
2021/12/01 01:58:51;;;;;;;15.10;9.30;;;;;;;2.59;57.20;99223.88;117335;1183;22525;-65
2021/12/01 02:01:36;;;;;;;13.90;8.90;;;;;;;2.58;57.11;99216.08;117332;1185;23644;-68
2021/12/01 02:04:06;;;;;;;14.50;9.00;;;;;;;2.54;57.17;99215.04;117316;1182;23753;-68
2021/12/01 02:06:35;;;;;;;14.70;8.90;;;;;;;2.50;57.07;99212.60;117284;1185;23570;-68
2021/12/01 02:09:05;;;;;;;16.70;10.20;;;;;;;2.47;57.13;99208.45;118966;1182;22614;-49
2021/12/01 02:11:33;;;;;;;14.60;9.50;;;;;;;2.45;57.18;99204.10;117310;1185;21866;-49
2021/12/01 02:14:02;;;;;;;14.60;9.80;;;;;;;2.46;57.36;99206.88;117324;1185;21961;-49
2021/12/01 02:16:31;;;;;;;15.00;9.80;;;;;;;2.42;57.27;99207.39;117330;1183;23461;-49
2021/12/01 02:18:59;;;;;;;16.10;9.80;;;;;;;2.63;56.97;99201.55;117328;1185;21895;-68
2021/12/01 02:21:29;;;;;;;14.60;8.40;;;;;;;2.25;57.53;99196.77;117405;1185;21914;-57
2021/12/01 02:23:59;;;;;;;17.60;11.30;;;;;;;1.68;58.67;99200.91;117340;1185;21855;-49
2021/12/01 02:26:28;;;;;;;16.10;9.80;;;;;;;2.29;57.69;99196.45;117341;1183;22221;-68
2021/12/01 02:28:58;;;;;;;16.40;10.40;;;;;;;2.51;57.21;99195.80;117293;1185;21858;-68
2021/12/01 02:31:30;;;;;;;14.90;9.60;;;;;;;2.57;57.05;99191.83;117312;1185;23698;-68
2021/12/01 02:33:58;;;;;;;16.00;9.90;;;;;;;2.60;57.00;99182.66;117319;1182;22987;-49
2021/12/01 02:36:27;;;;;;;15.70;9.60;;;;;;;2.60;57.02;99174.52;117332;1183;21854;-48
2021/12/01 02:38:56;;;;;;;16.20;10.40;;;;;;;2.59;56.96;99181.97;117283;1185;21867;-69
2021/12/01 02:41:29;;;;;;;17.40;9.70;;;;;;;2.58;56.92;99186.46;117295;1185;22681;-49
2021/12/01 02:43:59;;;;;;;15.10;9.30;;;;;;;2.61;56.89;99189.77;117362;1183;22487;-68
2021/12/01 02:46:27;;;;;;;15.70;10.20;;;;;;;2.63;56.72;99189.08;117273;1185;22147;-68
2021/12/01 02:48:57;;;;;;;15.50;10.10;;;;;;;2.62;56.86;99185.09;117111;1185;22932;-49
2021/12/01 02:51:30;;;;;;;15.60;10.70;;;;;;;2.61;56.62;99184.75;117268;1185;21871;-49
2021/12/01 02:53:59;;;;;;;17.20;9.80;;;;;;;2.59;56.78;99187.33;117313;1185;21888;-68
2021/12/01 02:56:28;;;;;;;16.10;9.70;;;;;;;2.58;56.58;99187.34;117321;1179;21821;-49
2021/12/01 02:58:58;;;;;;;15.90;10.00;;;;;;;2.58;56.77;99185.77;117311;1185;23699;-68
2021/12/01 03:01:27;;;;;;;17.00;10.40;;;;;;;2.57;56.73;99185.77;117319;1185;22808;-49
2021/12/01 03:03:57;;;;;;;14.70;9.20;;;;;;;2.53;56.48;99181.61;117385;1182;21852;-49
2021/12/01 03:06:26;;;;;;;15.90;9.30;;;;;;;2.49;56.60;99184.55;117359;1182;22497;-49
2021/12/01 03:08:55;;;;;;;14.90;9.10;;;;;;;2.47;56.56;99184.36;117284;1185;24155;-49
2021/12/01 03:11:25;;;;;;;14.90;9.60;;;;;;;2.46;56.64;99187.66;117186;1183;22885;-68
2021/12/01 03:13:54;;;;;;;14.90;9.50;;;;;;;2.45;56.67;99181.77;117311;1182;23551;-68
2021/12/01 03:16:22;;;;;;;16.30;8.90;;;;;;;2.45;56.67;99182.64;117417;1185;22838;-49
2021/12/01 03:18:51;;;;;;;15.00;9.20;;;;;;;2.46;56.56;99182.98;117310;1185;21910;-49
2021/12/01 03:21:20;;;;;;;15.60;9.50;;;;;;;2.48;56.64;99180.38;117368;1181;21854;-50
2021/12/01 03:23:49;;;;;;;14.30;8.60;;;;;;;2.47;56.51;99178.83;117357;1182;21852;-49
2021/12/01 03:26:17;;;;;;;17.80;11.10;;;;;;;2.48;56.42;99180.73;117312;1184;23456;-68
2021/12/01 03:28:46;;;;;;;14.40;9.60;;;;;;;2.48;56.52;99177.79;117326;1182;21858;-68
2021/12/01 03:31:15;;;;;;;14.60;9.30;;;;;;;2.47;56.63;99173.29;117314;1185;21854;-65
2021/12/01 03:33:43;;;;;;;23.80;12.50;;;;;;;1.50;58.28;99181.45;117302;1182;22690;-50
2021/12/01 03:36:12;;;;;;;37.90;19.30;;;;;;;1.13;59.32;99192.30;117309;1185;21990;-49
2021/12/01 03:38:40;;;;;;;33.40;17.80;;;;;;;1.40;59.20;99184.48;117360;1182;23478;-68
2021/12/01 03:41:09;;;;;;;28.30;15.40;;;;;;;2.33;57.32;99176.40;117262;1185;21861;-68
2021/12/01 03:43:37;;;;;;;22.90;14.10;;;;;;;2.53;56.96;99176.06;117284;1183;23553;-69
2021/12/01 03:46:10;;;;;;;21.70;12.10;;;;;;;2.63;56.65;99175.39;117273;1185;23455;-69
2021/12/01 03:48:39;;;;;;;27.20;15.70;;;;;;;2.75;56.71;99180.25;117322;1182;21914;-68
2021/12/01 03:51:07;;;;;;;24.70;14.20;;;;;;;2.52;57.17;99182.29;117323;1176;23449;-49
2021/12/01 03:53:35;;;;;;;21.30;12.90;;;;;;;2.66;57.23;99184.73;117243;1183;22615;-49
2021/12/01 03:56:04;;;;;;;20.50;12.40;;;;;;;1.74;58.99;99184.16;117358;1185;21888;-50
2021/12/01 03:58:33;;;;;;;23.10;13.80;;;;;;;2.12;58.82;99182.70;117319;1185;22877;-68
2021/12/01 04:01:02;;;;;;;23.30;13.10;;;;;;;2.77;57.65;99178.52;117298;1182;22640;-54
2021/12/01 04:03:30;;;;;;;23.60;13.90;;;;;;;2.93;57.52;99168.61;117387;1182;23531;-49
2021/12/01 04:05:58;;;;;;;18.40;11.80;;;;;;;3.02;57.33;99166.38;117326;1185;21852;-49
2021/12/01 04:08:27;;;;;;;20.70;13.00;;;;;;;3.09;57.22;99171.21;117329;1180;23467;-68
2021/12/01 04:10:55;;;;;;;19.20;11.80;;;;;;;3.17;57.24;99168.60;117300;1181;23448;-49
2021/12/01 04:13:23;;;;;;;19.20;11.90;;;;;;;3.14;57.36;99168.95;117170;1185;23336;-51
2021/12/01 04:15:52;;;;;;;21.20;13.00;;;;;;;2.87;57.70;99172.08;117326;1176;21855;-69
2021/12/01 04:18:20;;;;;;;54.70;33.00;;;;;;;2.12;59.46;99171.50;117405;1185;21845;-69
2021/12/01 04:20:48;;;;;;;36.50;24.80;;;;;;;2.25;59.52;99171.67;117301;1182;23483;-59
2021/12/01 04:23:18;;;;;;;27.60;19.50;;;;;;;2.60;58.85;99173.13;117332;1185;21839;-49
2021/12/01 04:25:47;;;;;;;35.10;24.70;;;;;;;3.20;57.90;99167.55;117327;1185;23561;-69
2021/12/01 04:28:16;;;;;;;26.80;19.40;;;;;;;2.39;59.32;99175.53;117416;1186;21893;-69
2021/12/01 04:30:44;;;;;;;29.50;21.80;;;;;;;2.24;59.98;99177.92;117472;1183;22502;-69
2021/12/01 04:33:12;;;;;;;27.40;18.10;;;;;;;2.22;60.12;99175.33;117419;1185;21853;-69
2021/12/01 04:35:42;;;;;;;31.80;22.20;;;;;;;2.23;60.15;99180.00;117386;1186;23226;-69
2021/12/01 04:38:11;;;;;;;20.60;16.40;;;;;;;2.25;60.21;99181.22;117421;1182;23619;-49
2021/12/01 04:40:39;;;;;;;17.80;13.00;;;;;;;2.26;60.30;99182.42;117246;1185;22943;-49
2021/12/01 04:43:07;;;;;;;16.20;11.20;;;;;;;2.28;60.36;99187.98;117339;1185;22690;-68
2021/12/01 04:45:41;;;;;;;34.30;23.00;;;;;;;2.30;60.45;99188.84;117382;1185;23454;-50
2021/12/01 04:48:09;;;;;;;27.00;19.40;;;;;;;2.32;60.51;99181.58;117410;1176;21860;-49
2021/12/01 04:50:38;;;;;;;17.70;12.40;;;;;;;2.32;60.45;99184.17;117338;1186;22800;-69
2021/12/01 04:53:06;;;;;;;16.60;12.10;;;;;;;2.34;60.44;99184.52;117349;1185;23903;-68
2021/12/01 04:55:35;;;;;;;16.40;11.50;;;;;;;2.36;60.60;99178.65;117376;1185;23475;-49
2021/12/01 04:58:03;;;;;;;13.60;10.20;;;;;;;2.40;60.44;99173.81;117422;1182;24306;-68
2021/12/01 05:00:34;;;;;;;15.90;11.20;;;;;;;2.43;60.53;99174.33;117306;1182;23160;-49
2021/12/01 05:03:04;;;;;;;19.00;12.90;;;;;;;2.48;60.62;99173.98;118935;1185;21881;-49
2021/12/01 05:05:50;;;;;;;16.80;12.10;;;;;;;2.53;60.57;99172.09;117394;1180;22941;-49
2021/12/01 05:08:20;;;;;;;23.70;14.90;;;;;;;2.56;60.49;99178.67;117484;1176;23279;-49
2021/12/01 05:10:48;;;;;;;15.30;10.70;;;;;;;2.59;60.42;99177.46;117350;1186;21843;-68
2021/12/01 05:13:17;;;;;;;14.20;8.90;;;;;;;2.62;60.53;99180.58;117409;1183;21853;-61
2021/12/01 05:15:47;;;;;;;13.00;10.10;;;;;;;2.64;60.66;99183.54;117329;1185;21854;-49
2021/12/01 05:18:15;;;;;;;11.30;7.80;;;;;;;2.63;60.60;99183.52;117338;1176;23638;-50
2021/12/01 05:20:44;;;;;;;11.90;8.20;;;;;;;2.62;60.57;99179.20;117303;1182;21954;-69
2021/12/01 05:23:15;;;;;;;12.90;8.70;;;;;;;2.62;60.60;99177.64;117346;1185;22610;-49
2021/12/01 05:25:45;;;;;;;13.60;8.00;;;;;;;2.61;60.69;99171.06;117322;1185;21852;-68
2021/12/01 05:28:13;;;;;;;12.10;8.20;;;;;;;2.61;60.63;99172.80;117350;1176;24166;-69
2021/12/01 05:30:42;;;;;;;12.80;8.30;;;;;;;2.61;60.60;99168.12;117375;1180;21845;-49
2021/12/01 05:33:14;;;;;;;13.40;8.00;;;;;;;2.62;60.69;99168.80;117427;1185;21860;-50
2021/12/01 05:35:43;;;;;;;12.90;8.70;;;;;;;2.61;60.80;99172.45;117342;1185;21917;-49
2021/12/01 05:38:12;;;;;;;12.80;8.50;;;;;;;2.63;60.56;99177.47;117330;1185;22941;-50
2021/12/01 05:40:40;;;;;;;12.80;9.30;;;;;;;2.64;60.59;99177.83;117243;1186;22924;-59
2021/12/01 05:43:09;;;;;;;12.60;8.20;;;;;;;2.64;60.65;99179.55;117309;1182;21847;-49
2021/12/01 05:45:38;;;;;;;15.40;9.10;;;;;;;3.70;58.68;99172.28;117400;1185;22879;-49
2021/12/01 05:48:06;;;;;;;14.00;8.40;;;;;;;4.04;58.10;99169.17;117498;1185;23618;-50
2021/12/01 05:50:34;;;;;;;12.10;8.80;;;;;;;3.51;58.73;99178.02;117404;1184;23448;-49
2021/12/01 05:53:03;;;;;;;12.00;8.20;;;;;;;2.94;60.01;99186.13;117332;1185;21857;-68
2021/12/01 05:55:31;;;;;;;12.10;8.20;;;;;;;2.84;60.33;99195.31;117317;1185;23581;-49
2021/12/01 05:58:00;;;;;;;14.20;9.90;;;;;;;2.80;60.46;99198.09;117330;1185;21858;-67
2021/12/01 06:00:28;;;;;;;10.70;7.90;;;;;;;2.77;60.38;99199.82;117437;1185;23467;-68
2021/12/01 06:02:57;;;;;;;14.50;9.60;;;;;;;2.78;60.54;99197.05;117430;1185;23772;-49
2021/12/01 06:05:25;;;;;;;15.30;9.20;;;;;;;2.80;60.59;99199.13;117348;1183;21857;-53
2021/12/01 06:07:54;;;;;;;15.40;9.50;;;;;;;2.84;60.55;99202.77;117323;1185;23484;-50
2021/12/01 06:10:22;;;;;;;12.00;8.70;;;;;;;2.84;60.57;99201.04;117337;1181;23439;-49
2021/12/01 06:12:52;;;;;;;13.80;8.50;;;;;;;2.84;60.73;99198.61;117463;1185;22333;-50
2021/12/01 06:15:20;;;;;;;12.40;8.50;;;;;;;2.87;60.63;99197.55;117463;1176;21845;-69
2021/12/01 06:17:49;;;;;;;11.50;8.00;;;;;;;2.92;60.71;99195.13;117438;1185;23426;-68
2021/12/01 06:20:18;;;;;;;12.10;8.30;;;;;;;2.95;60.72;99191.67;117328;1182;24324;-50
2021/12/01 06:22:47;;;;;;;11.30;8.10;;;;;;;3.01;60.87;99191.50;117119;1185;23466;-49
2021/12/01 06:25:15;;;;;;;14.70;9.20;;;;;;;3.06;60.89;99197.58;117406;1185;21864;-50
2021/12/01 06:27:44;;;;;;;13.70;9.20;;;;;;;3.10;60.88;99196.88;117402;1186;23103;-66
2021/12/01 06:30:14;;;;;;;12.90;8.80;;;;;;;3.16;60.91;99198.41;117501;1186;21842;-62
2021/12/01 06:32:43;;;;;;;14.80;8.50;;;;;;;3.20;60.97;99200.84;117355;1184;23739;-49
2021/12/01 06:35:11;;;;;;;11.20;7.70;;;;;;;3.25;60.98;99202.05;117333;1182;24610;-50
2021/12/01 06:37:40;;;;;;;10.10;7.30;;;;;;;3.26;60.90;99202.39;117412;1179;22793;-67
2021/12/01 06:40:09;;;;;;;11.70;8.30;;;;;;;3.29;60.98;99204.83;117374;1182;23445;-68
2021/12/01 06:42:37;;;;;;;12.70;8.40;;;;;;;3.31;61.13;99207.42;117433;1185;21883;-50
2021/12/01 06:45:07;;;;;;;12.80;8.00;;;;;;;3.32;60.92;99212.09;117441;1184;23477;-68
2021/12/01 06:47:36;;;;;;;14.70;9.40;;;;;;;3.34;60.91;99215.73;117299;1179;21849;-50
2021/12/01 06:50:04;;;;;;;14.90;8.90;;;;;;;3.34;60.96;99219.89;117609;1180;22616;-68
2021/12/01 06:52:34;;;;;;;11.80;8.40;;;;;;;3.35;61.01;99226.13;117421;1183;22946;-68
2021/12/01 06:55:02;;;;;;;11.70;8.50;;;;;;;3.37;61.03;99221.97;117377;1182;23426;-50
2021/12/01 06:57:31;;;;;;;13.00;8.20;;;;;;;3.40;61.00;99219.89;117290;1183;22864;-68
2021/12/01 07:00:00;;;;;;;13.10;8.30;;;;;;;3.51;60.64;99216.04;117350;1185;22113;-68
2021/12/01 07:02:28;;;;;;;14.90;8.30;;;;;;;3.55;60.82;99217.95;117421;1185;21853;-66
2021/12/01 07:04:57;;;;;;;11.60;8.00;;;;;;;3.60;60.93;99220.36;117344;1182;24155;-49
2021/12/01 07:07:25;;;;;;;12.40;8.20;;;;;;;3.57;60.91;99223.14;117297;1185;23475;-67
2021/12/01 07:09:54;;;;;;;13.40;8.40;;;;;;;3.61;61.02;99221.05;117428;1186;21864;-58
2021/12/01 07:12:23;;;;;;;15.60;9.00;;;;;;;3.65;61.07;99216.89;117346;1185;23448;-68
2021/12/01 07:14:51;;;;;;;13.30;8.00;;;;;;;3.71;61.04;99221.20;117252;1179;22928;-69
2021/12/01 07:17:20;;;;;;;10.90;7.80;;;;;;;3.75;61.01;99224.84;117391;1183;21848;-69
2021/12/01 07:19:48;;;;;;;11.10;7.50;;;;;;;3.82;61.02;99227.06;117289;1185;21854;-50
2021/12/01 07:22:17;;;;;;;11.20;7.30;;;;;;;3.87;61.03;99230.00;117570;1182;21917;-65
2021/12/01 07:24:46;;;;;;;12.30;8.60;;;;;;;3.88;61.16;99231.21;117319;1185;24204;-66
2021/12/01 07:27:14;;;;;;;10.10;7.90;;;;;;;3.91;60.81;99235.55;117362;1186;21973;-66
2021/12/01 07:29:43;;;;;;;12.30;7.90;;;;;;;3.94;60.99;99239.02;117368;1182;23769;-55
2021/12/01 07:32:11;;;;;;;11.80;7.70;;;;;;;3.97;61.06;99239.34;117332;1184;21863;-49
2021/12/01 07:34:43;;;;;;;10.00;6.80;;;;;;;4.01;61.02;99236.70;117370;1179;21892;-55
2021/12/01 07:37:13;;;;;;;10.60;7.90;;;;;;;4.09;61.11;99235.98;117305;1185;21954;-66
2021/12/01 07:39:41;;;;;;;10.60;7.40;;;;;;;4.16;61.19;99231.80;117358;1185;21910;-65
2021/12/01 07:42:11;;;;;;;10.90;7.60;;;;;;;4.22;61.12;99225.52;117352;1182;22884;-49
2021/12/01 07:44:40;;;;;;;11.10;7.30;;;;;;;4.30;61.09;99226.69;117430;1186;21869;-66
2021/12/01 07:47:09;;;;;;;9.70;7.00;;;;;;;4.39;61.14;99232.20;117400;1184;23471;-66
2021/12/01 07:49:38;;;;;;;11.50;7.00;;;;;;;5.41;59.53;99230.73;117318;1188;21845;-66
2021/12/01 07:52:11;;;;;;;10.20;6.40;;;;;;;4.83;60.51;99228.27;117312;1182;22617;-65
2021/12/01 07:54:40;;;;;;;10.10;6.70;;;;;;;4.72;61.03;99229.39;117361;1176;24155;-66
2021/12/01 07:57:09;;;;;;;9.30;6.20;;;;;;;4.88;61.01;99232.57;117248;1185;23472;-65
2021/12/01 07:59:37;;;;;;;9.60;6.30;;;;;;;4.94;61.04;99236.70;117352;1185;23564;-64
2021/12/01 08:02:06;;;;;;;8.50;6.00;;;;;;;5.06;61.32;99238.52;117326;1182;23584;-49
2021/12/01 08:04:34;;;;;;;9.80;6.00;;;;;;;5.25;61.43;99240.80;117346;1183;21887;-50
2021/12/01 08:07:03;;;;;;;8.40;6.00;;;;;;;5.44;61.25;99244.11;117477;1185;24159;-51
2021/12/01 08:09:33;;;;;;;8.30;5.40;;;;;;;5.60;61.40;99237.34;117341;1182;22597;-66
2021/12/01 08:12:01;;;;;;;10.70;6.60;;;;;;;5.76;61.70;99237.69;117309;1185;23622;-65
2021/12/01 08:14:29;;;;;;;23.10;11.10;;;;;;;5.88;61.43;99238.79;119364;1185;21772;-53
2021/12/01 08:16:58;;;;;;;15.10;8.70;;;;;;;5.94;61.30;99244.27;117927;1186;22433;-66
2021/12/01 08:19:26;;;;;;;11.10;6.70;;;;;;;5.95;61.04;99244.78;117349;1185;22708;-65
2021/12/01 08:21:54;;;;;;;10.30;6.40;;;;;;;5.90;61.27;99244.85;117263;1185;23698;-51
2021/12/01 08:24:23;;;;;;;9.40;6.40;;;;;;;5.90;61.35;99248.67;117200;1179;22905;-72
2021/12/01 08:26:51;;;;;;;9.40;6.80;;;;;;;5.93;61.34;99252.14;117408;1185;21848;-49
2021/12/01 08:29:20;;;;;;;9.60;6.40;;;;;;;5.99;61.42;99258.00;117333;1179;23451;-49
2021/12/01 08:31:48;;;;;;;8.00;5.90;;;;;;;6.08;61.53;99254.77;117368;1185;22187;-49
2021/12/01 08:34:16;;;;;;;8.50;5.80;;;;;;;6.16;61.39;99258.68;117335;1177;22922;-71
2021/12/01 08:36:46;;;;;;;9.00;5.50;;;;;;;6.27;61.74;99262.03;117349;1176;23657;-72
2021/12/01 08:39:15;;;;;;;7.50;4.80;;;;;;;6.41;61.92;99258.36;117351;1186;23622;-49
2021/12/01 08:41:44;;;;;;;8.00;4.70;;;;;;;6.59;61.84;99264.04;117360;1182;22645;-50
2021/12/01 08:44:13;;;;;;;12.70;5.60;;;;;;;6.74;61.71;99266.64;117460;1186;21846;-73
2021/12/01 08:46:41;;;;;;;7.50;4.60;;;;;;;6.88;61.67;99269.23;117325;1179;21957;-73
2021/12/01 08:49:10;;;;;;;8.80;5.70;;;;;;;6.91;61.48;99269.17;117417;1186;23467;-50
2021/12/01 08:51:39;;;;;;;9.50;5.60;;;;;;;6.91;61.71;99268.65;117310;1185;21863;-72
2021/12/01 08:54:13;;;;;;;7.10;5.00;;;;;;;6.94;61.54;99267.56;117398;1186;23139;-72
2021/12/01 08:56:41;;;;;;;10.50;4.40;;;;;;;6.94;61.46;99267.72;117355;1182;22921;-71
2021/12/01 08:59:10;;;;;;;7.70;5.20;;;;;;;6.97;61.27;99276.23;117367;1186;22437;-49
2021/12/01 09:01:40;;;;;;;6.50;4.10;;;;;;;7.02;61.51;99276.88;117233;1185;23510;-50
2021/12/01 09:04:08;;;;;;;6.40;4.40;;;;;;;7.11;61.65;99280.38;117318;1185;22946;-50
2021/12/01 09:06:38;;;;;;;5.70;4.30;;;;;;;7.25;61.66;99285.39;117243;1185;22549;-73
2021/12/01 09:09:06;;;;;;;4.90;3.40;;;;;;;7.37;61.65;99288.52;117330;1180;22867;-73
2021/12/01 09:11:34;;;;;;;5.90;4.10;;;;;;;7.45;61.66;99292.73;117318;1179;23389;-73
2021/12/01 09:14:03;;;;;;;5.60;3.70;;;;;;;7.44;61.65;99292.23;117344;1179;23470;-50
2021/12/01 09:16:44;;;;;;;6.80;4.20;;;;;;;7.40;61.45;99291.25;117276;1182;23461;-73
2021/12/01 09:19:13;;;;;;;8.50;4.90;;;;;;;7.37;61.38;99292.17;117289;1182;22620;-73
2021/12/01 09:21:41;;;;;;;7.50;4.30;;;;;;;7.34;61.41;99292.39;117339;1180;22648;-73
2021/12/01 09:24:09;;;;;;;6.60;4.50;;;;;;;7.31;61.37;99284.95;117358;1185;21881;-72
2021/12/01 09:26:38;;;;;;;5.60;3.70;;;;;;;7.32;61.39;99284.94;117223;1185;21889;-51
2021/12/01 09:29:06;;;;;;;6.20;4.10;;;;;;;7.38;61.60;99287.45;117347;1185;23592;-67
2021/12/01 09:31:36;;;;;;;6.70;3.80;;;;;;;7.46;61.41;99285.73;117309;1186;22676;-64
2021/12/01 09:34:04;;;;;;;6.80;3.60;;;;;;;7.58;61.79;99282.56;117390;1185;23475;-66
2021/12/01 09:36:33;;;;;;;4.90;3.30;;;;;;;7.76;61.76;99283.46;117280;1186;21858;-53
2021/12/01 09:39:02;;;;;;;7.80;3.20;;;;;;;7.92;61.81;99286.15;117313;1176;22925;-67
2021/12/01 09:41:31;;;;;;;5.20;3.20;;;;;;;8.07;61.64;99280.27;117283;1185;21860;-67
2021/12/01 09:43:59;;;;;;;6.00;3.50;;;;;;;8.16;61.58;99282.89;117407;1185;22840;-66
2021/12/01 09:46:30;;;;;;;5.20;3.80;;;;;;;8.27;61.72;99282.14;117293;1185;23583;-53
2021/12/01 09:48:59;;;;;;;6.50;3.60;;;;;;;8.36;61.53;99286.52;117304;1185;23483;-66
2021/12/01 09:51:27;;;;;;;6.10;3.50;;;;;;;8.44;61.70;99287.92;117282;1185;23452;-67
2021/12/01 09:53:57;;;;;;;7.20;3.80;;;;;;;8.50;61.67;99287.84;117300;1185;23448;-67
2021/12/01 09:56:25;;;;;;;7.30;4.10;;;;;;;8.52;61.61;99290.94;117241;1186;21853;-67
2021/12/01 09:58:54;;;;;;;6.90;3.80;;;;;;;8.54;61.48;99287.39;117339;1185;22874;-53
2021/12/01 10:01:23;;;;;;;17.40;9.40;;;;;;;8.61;61.53;99285.49;117255;1185;21855;-53
2021/12/01 10:03:52;;;;;;;10.00;4.70;;;;;;;8.65;61.42;99287.84;117244;1186;21837;-54
2021/12/01 10:06:21;;;;;;;22.40;10.10;;;;;;;8.61;61.13;99295.45;117197;1186;23474;-67
2021/12/01 10:08:52;;;;;;;13.30;6.40;;;;;;;8.57;61.51;99295.20;117219;1185;22734;-53
2021/12/01 10:11:36;;;;;;;11.60;6.40;;;;;;;8.66;61.45;99296.41;117170;1186;23474;-68
2021/12/01 10:14:08;;;;;;;12.00;6.30;;;;;;;8.71;61.54;99293.49;117275;1182;21914;-65
2021/12/01 10:16:39;;;;;;;9.10;5.40;;;;;;;8.77;61.56;99289.52;117248;1186;22873;-53
2021/12/01 10:19:09;;;;;;;15.80;7.60;;;;;;;8.78;61.40;99287.23;117143;1180;22622;-54
2021/12/01 10:21:47;;;;;;;19.50;7.80;;;;;;;8.67;60.98;99283.78;117267;1183;21881;-55
2021/12/01 10:24:26;;;;;;;27.30;11.40;;;;;;;8.48;60.91;99284.69;117176;1182;23645;-66
2021/12/01 10:26:58;;;;;;;18.10;8.20;;;;;;;8.27;60.84;99293.52;117305;1185;21852;-54
2021/12/01 10:29:31;;;;;;;17.80;8.90;;;;;;;8.18;61.18;99298.91;117330;1183;23641;-68
2021/12/01 10:32:07;;;;;;;10.90;6.20;;;;;;;8.27;61.48;99298.40;117327;1185;21857;-64
2021/12/01 10:34:43;;;;;;;8.30;5.20;;;;;;;8.44;61.55;99305.74;117119;1185;23702;-68
2021/12/01 10:37:13;;;;;;;11.10;6.50;;;;;;;8.61;61.75;99302.98;117066;1186;23460;-67
2021/12/01 10:39:44;;;;;;;9.30;6.00;;;;;;;8.80;61.70;99303.96;117208;1185;22630;-53
2021/12/01 10:42:15;;;;;;;8.20;5.10;;;;;;;8.95;61.68;99304.84;117213;1185;21967;-53
2021/12/01 10:44:59;;;;;;;10.50;5.60;;;;;;;9.14;61.86;99306.16;117129;1179;22626;-67
2021/12/01 10:47:44;;;;;;;5.60;3.40;;;;;;;9.35;61.91;99302.17;116975;1187;22647;-54
2021/12/01 10:50:15;;;;;;;7.60;4.30;;;;;;;9.53;61.99;99302.42;117263;1185;21902;-67
2021/12/01 10:52:49;;;;;;;5.60;3.20;;;;;;;9.67;61.84;99295.77;117317;1179;23461;-67
2021/12/01 10:55:24;;;;;;;6.50;2.90;;;;;;;9.83;61.67;99300.42;117065;1183;22867;-54
2021/12/01 10:57:55;;;;;;;4.20;2.10;;;;;;;9.95;61.78;99302.20;118957;1185;23313;-54
2021/12/01 11:00:26;;;;;;;;;;;;;;;10.06;61.74;99307.02;118943;1185;23433;-66
2021/12/01 11:03:09;;;;;;;4.20;1.40;;;;;;;10.17;61.66;99313.16;117221;1185;21894;-54
2021/12/01 11:05:57;;;;;;;4.30;1.20;;;;;;;10.20;61.54;99316.61;117313;1185;21870;-53
2021/12/01 11:08:27;;;;;;;3.70;1.40;;;;;;;10.14;61.32;99321.16;117219;1183;22766;-66
2021/12/01 11:10:58;;;;;;;2.20;1.20;;;;;;;10.09;61.35;99332.86;117225;1185;21863;-67
2021/12/01 11:13:27;;;;;;;3.90;1.30;;;;;;;10.08;61.40;99331.33;117157;1185;22930;-66
2021/12/01 11:15:58;;;;;;;3.60;1.40;;;;;;;10.08;61.45;99330.79;117312;1183;23451;-53
2021/12/01 11:18:45;;;;;;;2.30;1.30;;;;;;;10.13;61.53;99336.96;117303;1185;21860;-67
2021/12/01 11:21:22;;;;;;;2.30;1.00;;;;;;;10.20;61.74;99338.00;117118;1186;21883;-54
2021/12/01 11:23:53;;;;;;;3.70;1.00;;;;;;;10.35;61.75;99342.34;117259;1186;21842;-67
2021/12/01 11:26:23;;;;;;;3.70;1.30;;;;;;;10.45;61.72;99337.00;117339;1183;23474;-66
2021/12/01 11:29:06;;;;;;;2.80;1.40;;;;;;;10.50;61.62;99339.13;117272;1182;23001;-67
2021/12/01 11:31:40;;;;;;;2.40;1.30;;;;;;;10.57;61.63;99336.65;117199;1183;24226;-55
2021/12/01 11:34:19;;;;;;;3.70;1.70;;;;;;;10.66;61.60;99341.98;117189;1185;23487;-54
2021/12/01 11:36:49;;;;;;;3.50;1.70;;;;;;;10.73;61.60;99337.24;117107;1186;23301;-66
2021/12/01 11:39:22;;;;;;;3.50;2.00;;;;;;;10.76;61.46;99334.86;119371;1185;21763;-67